Latest Coastal Weather Observations for Rhyll

IDV60701

Issued at 1:02 am EST Sunday 26 June 2022 (issued every 10 minutes, with the page automatically refreshed every 10 minutes)

About coastal observations | Map of coastal stations | Coastal observations for VIC | Marine services | Other Formats
Station Details ID: 086373 Name: RHYLL Lat: -38.46 Lon: 145.31 Height: 13.4 m
Data from the previous 72 hours. | See also: Recent months at Rhyll
Date/Time
EST
Wind Sea
Height
m
Swell Vis
km
Cloud Weather Temp
°C
Press
MSL
hPa
Rain since
9am
mm
Dir  Spd
kts
Gust
kts
Height
m
Period
s
Dir
26/01:00am NNW 9 15 - - - - - - - 12.0 1019.4 0.0
26/12:30am NNW 12 17 - - - - - - - 11.9 1019.4 0.0
26/12:00am NNW 14 21 - - - - - - - 12.2 1019.2 0.0
 
Date/Time
EST
Wind Sea
Height
m
Swell Vis
km
Cloud Weather Temp
°C
Press
MSL
hPa
Rain since
9am
mm
Dir  Spd
kts
Gust
kts
Height
m
Period
s
Dir
25/11:30pm NNW 16 24 - - - - - - - 12.5 1019.1 0.0
25/11:00pm NNW 14 22 - - - - - - - 12.6 1019.1 0.0
25/10:30pm NNW 13 20 - - - - - - - 12.8 1019.1 0.0
25/10:00pm NNW 15 22 - - - - - - - 12.7 1018.8 0.0
25/09:30pm NNW 16 23 - - - - - - - 12.9 1018.8 0.0
25/09:00pm NNW 15 22 - - - - - - - 13.0 1018.7 0.0
25/08:30pm NNW 15 21 - - - - - - - 13.1 1018.8 0.0
25/08:00pm NNW 15 21 - - - - - - - 13.0 1018.7 0.0
25/07:30pm NNW 13 20 - - - - - - - 13.1 1018.7 0.0
25/07:00pm NNW 15 21 - - - - - - - 13.3 1018.2 0.0
25/06:30pm NNW 13 18 - - - - - - - 13.2 1017.9 0.0
25/06:00pm NNW 10 16 - - - - - - - 13.4 1017.8 0.0
25/05:30pm NNW 7 15 - - - - - - - 13.8 1017.8 0.0
25/05:00pm NNW 11 14 - - - - - - - 13.6 1017.7 0.0
25/04:30pm NNW 11 15 - - - - - - - 13.4 1017.6 0.0
25/04:00pm NNW 13 18 - - - - - - - 13.6 1017.8 0.0
25/03:30pm NNW 12 17 - - - - - - - 13.8 1017.7 0.0
25/03:00pm NNW 12 19 - - - - - - - 14.5 1017.5 0.0
25/02:30pm NNW 13 18 - - - - - - - 13.9 1017.6 0.0
25/02:00pm NNW 13 20 - - - - - - - 13.9 1017.7 0.0
25/01:30pm NW 12 18 - - - - - - - 14.6 1017.7 0.0
25/01:00pm NNW 12 17 - - - - - - - 14.4 1017.9 0.0
25/12:30pm NNW 13 20 - - - - - - - 14.1 1018.0 0.0
25/12:00pm NNW 12 20 - - - - - - - 14.1 1018.2 0.0
25/11:30am NNW 12 19 - - - - - - - 13.7 1018.3 0.0
25/11:00am NW 10 18 - - - - - - - 13.4 1018.6 0.0
25/10:30am NNW 13 20 - - - - - - - 13.1 1018.8 0.0
25/10:00am NNW 13 20 - - - - - - - 12.6 1018.8 0.0
25/09:30am NNW 13 18 - - - - - - - 12.1 1018.3 0.0
25/09:00am NNW 15 19 - - - - - - - 11.5 1018.2 0.0
25/08:30am NNW 10 17 - - - - - - - 10.9 1017.9 0.0
25/08:00am NNW 11 18 - - - - - - - 10.9 1017.7 0.0
25/07:30am NNW 10 14 - - - - - - - 11.2 1017.7 0.0
25/07:00am NNW 11 17 - - - - - - - 11.4 1017.4 0.0
25/06:30am NNW 11 17 - - - - - - - 11.3 1017.0 0.0
25/06:00am NNW 9 13 - - - - - - - 11.3 1016.8 0.0
25/05:30am NNW 10 15 - - - - - - - 11.0 1016.5 0.0
25/05:00am NNW 10 14 - - - - - - - 11.0 1016.3 0.0
25/04:30am NNW 7 11 - - - - - - - 10.8 1016.2 0.0
25/04:00am NNW 7 11 - - - - - - - 10.9 1016.1 0.0
25/03:30am NNW 8 11 - - - - - - - 10.8 1016.1 0.0
25/03:00am NNW 10 13 - - - - - - - 11.0 1016.0 0.0
25/02:30am NW 5 9 - - - - - - - 10.9 1016.3 0.0
25/02:00am NW 4 7 - - - - - - - 10.9 1016.3 0.0
25/01:30am NW 3 7 - - - - - - - 10.8 1016.2 0.0
25/01:00am NW 3 5 - - - - - - - 11.0 1016.4 0.0
25/12:30am NW 5 9 - - - - - - - 10.8 1016.4 0.0
25/12:00am NW 4 10 - - - - - - - 11.1 1016.5 0.0
 
Date/Time
EST
Wind Sea
Height
m
Swell Vis
km
Cloud Weather Temp
°C
Press
MSL
hPa
Rain since
9am
mm
Dir  Spd
kts
Gust
kts
Height
m
Period
s
Dir
24/11:30pm NW 3 6 - - - - - - - 11.1 1016.6 0.0
24/11:00pm NW 3 7 - - - - - - - 11.1 1016.5 0.0
24/10:30pm NW 2 4 - - - - - - - 10.9 1016.6 0.0
24/10:00pm WNW 3 6 - - - - - - - 11.4 1016.7 0.0
24/09:30pm W 2 4 - - - - - - - 11.1 1016.7 0.0
24/09:00pm WNW 3 7 - - - - - - - 11.6 1016.7 0.0
24/08:30pm WNW 4 7 - - - - - - - 12.1 1016.7 0.0
24/08:00pm WNW 3 6 - - - - - - - 11.9 1016.7 0.0
24/07:30pm W 3 7 - - - - - - - 11.7 1016.4 0.0
24/07:00pm W 3 6 - - - - - - - 12.0 1016.1 0.0
24/06:30pm W 5 7 - - - - - - - 11.9 1015.9 0.0
24/06:00pm W 3 5 - - - - - - - 11.3 1015.6 0.0
24/05:30pm W 3 4 - - - - - - - 12.2 1015.4 0.0
24/05:00pm WNW 3 5 - - - - - - - 12.7 1015.0 0.0
24/04:30pm WNW 3 6 - - - - - - - 12.9 1014.8 0.0
24/04:00pm NW 3 6 - - - - - - - 13.8 1014.7 0.0
24/03:30pm WNW 4 10 - - - - - - - 14.1 1014.6 0.0
24/03:00pm W 7 12 - - - - - - - 14.5 1014.3 0.0
24/02:30pm W 6 10 - - - - - - - 14.9 1014.2 0.0
24/02:00pm NW 4 9 - - - - - - - 14.7 1014.1 0.0
24/01:30pm WNW 4 8 - - - - - - - 14.1 1014.2 0.0
24/01:00pm WNW 7 15 - - - - - - - 13.7 1014.4 0.0
24/12:30pm WNW 6 12 - - - - - - - 14.6 1014.2 0.0
24/12:00pm WNW 7 13 - - - - - - - 14.6 1014.2 0.0
24/11:30am WNW 5 9 - - - - - - - 14.3 1014.3 0.0
24/11:00am WNW 5 11 - - - - - - - 14.0 1014.3 0.0
24/10:30am WNW 5 10 - - - - - - - 13.0 1014.3 0.0
24/10:00am WNW 4 8 - - - - - - - 12.9 1014.1 0.0
24/09:30am WNW 4 8 - - - - - - - 12.6 1013.6 0.0
24/09:00am WNW 3 5 - - - - - - - 12.4 1013.5 3.8
24/08:30am NW 4 11 - - - - - - - 12.2 1013.1 3.8
24/08:00am NW 6 10 - - - - - - - 12.0 1013.0 3.8
24/07:30am NNW 9 14 - - - - - - - 12.0 1012.7 3.6
24/07:00am NW 6 12 - - - - - - - 12.3 1012.2 3.6
24/06:30am NW 3 7 - - - - - - - 12.0 1011.8 3.6
24/06:00am NNW 11 16 - - - - - - Recent precip. 11.9 1011.4 3.6
24/05:30am NNW 10 14 - - - - - - - 11.8 1011.0 3.6
24/05:00am NNW 14 21 - - - - - - - 11.9 1011.1 3.0
24/04:30am NNW 14 20 - - - - - - - 12.2 1010.8 2.0
24/04:00am NNW 15 23 - - - - - - - 12.7 1010.6 0.6
24/03:30am NNW 15 22 - - - - - - - 13.4 1010.7 0.0
24/03:05am NNW 17 27 - - - - - - - 13.4 1010.8 0.0
24/03:00am NNW 18 27 - - - - - - - 13.6 1010.8 0.0
24/02:32am NNW 19 31 - - - - - - - 14.2 1011.0 0.0
24/02:30am NNW 19 28 - - - - - - - 14.2 1011.0 0.0
24/02:00am NNW 19 26 - - - - - - - 14.3 1011.0 0.0
24/01:30am NNW 16 23 - - - - - - - 14.3 1011.3 0.0
24/01:26am NNW 19 29 - - - - - - - 14.3 1011.3 0.0
24/01:00am NNW 20 28 - - - - - - - 14.4 1010.9 0.0
24/12:30am NNW 19 26 - - - - - - - 14.2 1011.5 0.0
24/12:12am NNW 24 34 - - - - - - - 14.4 1011.4 0.0
24/12:00am NNW 24 33 - - - - - - - 14.4 1011.5 0.0
 
Date/Time
EST
Wind Sea
Height
m
Swell Vis
km
Cloud Weather Temp
°C
Press
MSL
hPa
Rain since
9am
mm
Dir  Spd
kts
Gust
kts
Height
m
Period
s
Dir
23/11:56pm NNW 23 33 - - - - - - - 14.4 1011.6 0.0
23/11:30pm NNW 25 33 - - - - - - - 14.4 1011.7 0.0
23/11:12pm NNW 22 32 - - - - - - - 14.2 1011.9 0.0
23/11:00pm NNW 24 33 - - - - - - - 14.3 1011.9 0.0
23/10:30pm NNW 26 33 - - - - - - - 14.2 1012.2 0.0
23/10:07pm NNW 26 37 - - - - - - - 14.4 1012.4 0.0
23/10:00pm NNW 27 33 - - - - - - - 14.3 1012.3 0.0
23/09:30pm NNW 22 29 - - - - - - - 14.3 1012.9 0.0
23/09:00pm NNW 23 29 - - - - - - - 14.3 1013.3 0.0
23/08:39pm NNW 20 30 - - - - - - - 14.3 1013.6 0.0
23/08:30pm NNW 19 27 - - - - - - - 14.2 1013.7 0.0
23/08:00pm NNW 20 26 - - - - - - - 14.3 1014.2 0.0
23/07:30pm N 18 22 - - - - - - - 13.9 1014.4 0.0
23/07:00pm N 20 26 - - - - - - - 13.9 1014.6 0.0
23/06:30pm NNW 17 22 - - - - - - - 13.8 1014.9 0.0
23/06:00pm NNW 16 21 - - - - - - - 13.8 1015.2 0.0
23/05:30pm NNW 16 21 - - - - - - - 13.7 1015.2 0.0
23/05:00pm NNW 17 21 - - - - - - - 13.8 1015.3 0.0
23/04:30pm N 16 20 - - - - - - - 14.1 1015.1 0.0
23/04:00pm NNW 15 19 - - - - - - - 14.1 1015.5 0.0
23/03:30pm NNW 13 17 - - - - - - - 14.0 1015.6 0.0
23/03:00pm NNW 19 22 - - - - - - - 14.5 1015.5 0.0
23/02:30pm NNW 18 24 - - - - - - - 14.5 1015.7 0.0
23/02:00pm NNW 16 21 - - - - - - - 14.5 1016.1 0.0
23/01:30pm NNW 16 23 - - - - - - - 14.5 1016.5 0.0
23/01:00pm NNW 12 16 - - - - - - - 14.6 1017.4 0.0
23/12:30pm NNW 13 17 - - - - - - - 14.4 1018.1 0.0
23/12:00pm NNW 11 15 - - - - - - - 13.9 1018.8 0.0
23/11:30am NNW 13 17 - - - - - - - 13.8 1019.4 0.0
23/11:00am NNW 11 16 - - - - - - - 13.4 1020.1 0.0
23/10:30am NNW 11 15 - - - - - - - 13.6 1020.4 0.0
23/10:00am NNW 11 15 - - - - - - - 13.5 1020.6 0.0
23/09:30am NNW 8 12 - - - - - - - 13.5 1020.7 0.0
23/09:00am NNW 8 13 - - - - - - - 13.0 1020.6 0.0
23/08:30am NNW 11 14 - - - - - - - 12.6 1020.6 0.0
23/08:00am NNW 11 14 - - - - - - - 12.1 1020.5 0.0
23/07:30am NNW 11 14 - - - - - - - 12.1 1020.6 0.0
23/07:00am NNW 10 13 - - - - - - - 12.1 1020.5 0.0
23/06:30am NNW 9 12 - - - - - - - 11.8 1020.3 0.0
23/06:00am NNW 11 14 - - - - - - - 11.9 1020.1 0.0
23/05:30am NNW 12 16 - - - - - - - 11.8 1019.8 0.0
23/05:00am NNW 9 14 - - - - - - - 11.8 1020.0 0.0
23/04:30am N 10 13 - - - - - - - 11.8 1020.1 0.0
23/04:00am NNW 11 14 - - - - - - - 12.0 1020.8 0.0
23/03:30am NNW 9 13 - - - - - - - 11.8 1021.1 0.0
23/03:00am NNW 9 13 - - - - - - - 11.5 1021.4 0.0
23/02:30am NNW 11 16 - - - - - - - 11.8 1021.5 0.0
23/02:00am NNW 11 15 - - - - - - - 11.6 1021.9 0.0
23/01:30am NNW 11 15 - - - - - - - 11.3 1021.9 0.0

Other formats

Comma delimited format used in spreadsheet applications
http://www.bom.gov.au/fwo/IDV60701/IDV60701.94892.axf

JavaScript Object Notation format (JSON) in row-major order
http://www.bom.gov.au/fwo/IDV60701/IDV60701.94892.json

Data quality

Most of these data are generated automatically and are frequently updated. Quality checks on data are not normally performed. It is possible for incorrect values to appear. Refer to information at About Latest Weather Observations and please check the disclaimer before using these data.